Vladivostok, Russia
Current Conditions -  °F | °C
As of 9:00 AM on Wednesday 26 Nov 2014 (Local Time) from UHWW Reporting Station
Few Clouds Few Clouds  
Wind Chill:   Ceiling: Unl
Heat Index: 18°   Visibility: 6mi
Dew Point: 12°   Wind: 7mph
Humidity: 79%   Direction: 70°ENE
Pressure: 30.18"   Gusts: NA
Location:  43.13°N, 131.9°E
Report Text: UHWW 252300Z 07003MPS 9999 FEW100 M08/M11 Q1022 NOSIG RMKQFE765/1020 25CLRD70
Loading
Personal Weather Stations






























Interactive Weather Map New forecast layout! Learn more

10-Day Weather Forecast

Advertisements
Track Severe Weather on mobile